createdAt,value
2017-07-09T00:00:28.832Z,69.2
2017-07-09T00:01:27.902Z,69.3
2017-07-09T00:02:27.300Z,69.3
2017-07-09T00:03:26.512Z,69.4
2017-07-09T00:04:26.195Z,69.5
2017-07-09T00:05:25.255Z,69.5
2017-07-09T00:06:24.955Z,69.7
2017-07-09T00:07:24.260Z,69.7
2017-07-09T00:08:23.833Z,69.7
2017-07-09T00:09:22.781Z,69.9
2017-07-09T00:10:22.114Z,69.7
2017-07-09T00:11:21.446Z,69.8
2017-07-09T00:12:20.896Z,69.8
2017-07-09T00:13:19.716Z,69.9
2017-07-09T00:14:19.423Z,69.8
2017-07-09T00:15:18.627Z,69.8
2017-07-09T00:16:18.199Z,69.9
2017-07-09T00:17:17.884Z,69.9
2017-07-09T00:18:16.948Z,69.9
2017-07-09T00:19:15.908Z,70
2017-07-09T00:20:15.644Z,70.1
2017-07-09T00:21:15.094Z,69.9
2017-07-09T00:22:13.782Z,69.9
2017-07-09T00:23:13.350Z,70
2017-07-09T00:24:13.058Z,69.9
2017-07-09T00:25:12.367Z,69.9
2017-07-09T00:26:12.259Z,69.9
2017-07-09T00:27:11.201Z,69.8
2017-07-09T00:28:10.660Z,69.6
2017-07-09T00:29:09.610Z,69.6
2017-07-09T00:30:09.052Z,69.5
2017-07-09T00:31:08.505Z,69.5
2017-07-09T00:32:07.446Z,69.6
2017-07-09T00:33:07.007Z,69.5
2017-07-09T00:34:06.459Z,69.5
2017-07-09T00:35:05.653Z,69.6
2017-07-09T00:36:05.099Z,69.6
2017-07-09T00:37:04.288Z,69.4
2017-07-09T00:38:03.858Z,69.5
2017-07-09T00:39:03.048Z,69.6
2017-07-09T00:40:02.481Z,69.4
2017-07-09T00:41:01.626Z,69.2
2017-07-09T00:42:01.401Z,69.1
2017-07-09T00:43:00.225Z,69.1
2017-07-09T00:43:59.928Z,69
2017-07-09T00:44:58.878Z,69.1
2017-07-09T00:45:58.566Z,69
2017-07-09T00:46:58.017Z,69
2017-07-09T00:47:57.213Z,68.8
2017-07-09T00:48:56.653Z,68.9
2017-07-09T00:49:55.721Z,68.7
2017-07-09T00:50:55.101Z,68.8
2017-07-09T00:51:54.557Z,68.7
2017-07-09T00:52:53.750Z,68.7
2017-07-09T00:53:24.634Z,68.7
2017-07-09T00:54:52.510Z,68.5
2017-07-09T00:55:52.089Z,68.5
2017-07-09T00:56:51.151Z,68.4
2017-07-09T00:57:50.465Z,69
2017-07-09T00:58:49.902Z,69.7
2017-07-09T00:59:49.280Z,69.6
2017-07-09T01:00:48.731Z,69.6
2017-07-09T01:01:47.685Z,70.2
2017-07-09T01:02:47.018Z,69.9
2017-07-09T01:03:46.460Z,69.8
2017-07-09T01:04:46.284Z,70.3
2017-07-09T01:05:45.226Z,70.3
2017-07-09T01:06:44.480Z,70.6
2017-07-09T01:07:44.309Z,70.5
2017-07-09T01:08:43.119Z,70.4
2017-07-09T01:09:42.429Z,70.5
2017-07-09T01:10:42.003Z,70.6
2017-07-09T01:11:41.444Z,70.6
2017-07-09T01:12:41.019Z,70.5
2017-07-09T01:13:39.965Z,70.5
2017-07-09T01:14:39.531Z,70.5
2017-07-09T01:15:38.976Z,70.5
2017-07-09T01:16:37.920Z,70.5
2017-07-09T01:17:37.366Z,70.6
2017-07-09T01:18:37.073Z,70.6
2017-07-09T01:19:36.273Z,70.7
2017-07-09T01:20:35.477Z,70.9
2017-07-09T01:21:34.917Z,70.7
2017-07-09T01:22:33.742Z,70.6
2017-07-09T01:23:33.559Z,70.6
2017-07-09T01:24:32.869Z,70.7
2017-07-09T01:25:32.380Z,70.8
2017-07-09T01:26:31.332Z,70.8
2017-07-09T01:27:30.781Z,70.6
2017-07-09T01:28:30.347Z,70.7
2017-07-09T01:29:29.296Z,70.6
2017-07-09T01:30:28.766Z,70.5
2017-07-09T01:31:28.093Z,70.6
2017-07-09T01:31:58.473Z,70.6
2017-07-09T01:32:28.842Z,70.6
2017-07-09T01:33:26.781Z,70.6
2017-07-09T01:34:25.734Z,70.6
2017-07-09T01:35:25.429Z,70.6
2017-07-09T01:37:24.269Z,70.5
2017-07-09T01:38:23.470Z,70.5
2017-07-09T01:39:23.048Z,70.6
2017-07-09T01:40:22.365Z,70.6
2017-07-09T01:41:21.306Z,70.7
2017-07-09T01:42:21.261Z,70.8
2017-07-09T01:43:20.327Z,70.8
2017-07-09T01:44:19.518Z,70.7
2017-07-09T01:45:18.968Z,70.7
2017-07-09T01:46:18.416Z,70.6
2017-07-09T01:47:17.481Z,70.6
2017-07-09T01:48:17.172Z,70.5
2017-07-09T01:49:16.350Z,70.5
2017-07-09T01:50:15.664Z,70.5
2017-07-09T01:51:15.111Z,70.6
2017-07-09T01:52:14.063Z,70.7
2017-07-09T01:53:13.765Z,70.7
2017-07-09T01:54:13.261Z,70.7
2017-07-09T01:55:12.209Z,70.8
2017-07-09T01:57:11.174Z,70.9
2017-07-09T01:58:10.252Z,71.1
2017-07-09T01:59:09.321Z,71
2017-07-09T02:00:09.268Z,70.9
2017-07-09T02:01:08.342Z,71.1
2017-07-09T02:02:07.525Z,71.2
2017-07-09T02:03:07.226Z,71.1
2017-07-09T02:03:37.620Z,71.1
2017-07-09T02:05:05.887Z,71.1
2017-07-09T02:06:04.976Z,71.1
2017-07-09T02:07:04.432Z,71.1
2017-07-09T02:08:03.758Z,71.1
2017-07-09T02:09:02.960Z,71.1
2017-07-09T02:10:02.405Z,71.1
2017-07-09T02:11:01.451Z,71.1
2017-07-09T02:12:01.268Z,71.1
2017-07-09T02:13:00.221Z,71.3
2017-07-09T02:13:59.791Z,71.4
2017-07-09T02:14:58.987Z,71.5
2017-07-09T02:15:58.309Z,71.3
2017-07-09T02:16:58.259Z,71.5
2017-07-09T02:17:57.331Z,71.5
2017-07-09T02:18:56.529Z,71.5
2017-07-09T02:19:55.595Z,71.7
2017-07-09T02:20:55.166Z,71.9
2017-07-09T02:21:54.741Z,71.9
2017-07-09T02:22:53.621Z,71.9
2017-07-09T02:23:53.182Z,72
2017-07-09T02:24:52.367Z,72
2017-07-09T02:25:23.257Z,72
2017-07-09T02:25:53.508Z,72.2
2017-07-09T02:26:23.890Z,72.2
2017-07-09T02:26:54.270Z,72.2
2017-07-09T02:27:50.571Z,72.5
2017-07-09T02:28:49.768Z,72.5
2017-07-09T02:29:48.961Z,72.5
2017-07-09T02:30:48.404Z,72.7
2017-07-09T02:32:46.984Z,72.6
2017-07-09T02:33:46.636Z,72.7
2017-07-09T02:34:45.575Z,72.7
2017-07-09T02:36:44.789Z,72.9
2017-07-09T02:37:43.844Z,72.9
2017-07-09T02:38:43.029Z,72.7
2017-07-09T02:39:42.716Z,72.8
2017-07-09T02:40:42.035Z,72.7
2017-07-09T02:41:41.485Z,72.7
2017-07-09T02:42:41.042Z,72.7
2017-07-09T02:43:39.995Z,72.7
2017-07-09T02:44:39.311Z,72.8
2017-07-09T02:45:38.511Z,72.8
2017-07-09T02:46:09.021Z,72.8
2017-07-09T02:46:39.519Z,72.8
2017-07-09T02:47:36.945Z,72.8
2017-07-09T02:48:36.647Z,73
2017-07-09T02:49:36.356Z,73
2017-07-09T02:50:35.427Z,73.1
2017-07-09T02:51:34.873Z,73.1
2017-07-09T02:52:34.201Z,73.2
2017-07-09T02:53:33.274Z,73.4
2017-07-09T02:54:32.600Z,73.4
2017-07-09T02:55:32.046Z,73.5
2017-07-09T02:56:31.765Z,73.3
2017-07-09T02:57:30.985Z,73.4
2017-07-09T02:58:30.182Z,73.3
2017-07-09T02:59:29.760Z,73.4
2017-07-09T03:00:28.698Z,73.3
2017-07-09T03:01:28.283Z,73.4
2017-07-09T03:02:27.105Z,73.5
2017-07-09T03:03:26.677Z,73.6
2017-07-09T03:04:26.134Z,73.6
2017-07-09T03:05:25.455Z,73.7
2017-07-09T03:06:24.773Z,73.7
2017-07-09T03:07:23.963Z,73.7
2017-07-09T03:08:23.281Z,73.7
2017-07-09T03:09:22.848Z,73.6
2017-07-09T03:10:22.040Z,73.5
2017-07-09T03:11:21.616Z,73.5
2017-07-09T03:12:20.573Z,73.6
2017-07-09T03:13:19.900Z,73.5
2017-07-09T03:14:19.354Z,73.6
2017-07-09T03:15:18.569Z,73.5
2017-07-09T03:16:17.900Z,73.5
2017-07-09T03:17:17.215Z,73.4
2017-07-09T03:18:16.401Z,73.4
2017-07-09T03:19:16.219Z,73.4
2017-07-09T03:20:15.544Z,73.3
2017-07-09T03:22:13.631Z,73
2017-07-09T03:23:13.079Z,72.9
2017-07-09T03:24:12.640Z,72.8
2017-07-09T03:25:11.969Z,72.8
2017-07-09T03:26:11.540Z,73
2017-07-09T03:27:10.746Z,73
2017-07-09T03:28:10.202Z,72.9
2017-07-09T03:29:09.652Z,72.6
2017-07-09T03:30:08.841Z,72.7
2017-07-09T03:31:07.895Z,72.7
2017-07-09T03:32:07.221Z,72.6
2017-07-09T03:33:06.412Z,72.5
2017-07-09T03:34:06.000Z,72.5
2017-07-09T03:35:05.455Z,72.4
2017-07-09T03:36:04.762Z,72.3
2017-07-09T03:37:03.960Z,72.3
2017-07-09T03:38:03.521Z,71.8
2017-07-09T03:39:02.839Z,71.8
2017-07-09T03:40:02.035Z,71.8
2017-07-09T03:41:01.604Z,72
2017-07-09T03:42:00.411Z,72.2
2017-07-09T03:43:00.224Z,71.9
2017-07-09T03:43:59.157Z,72.2
2017-07-09T03:44:59.104Z,72.1
2017-07-09T03:45:58.303Z,72.2
2017-07-09T03:46:57.245Z,72.3
2017-07-09T03:47:56.700Z,72.3
2017-07-09T03:48:56.024Z,72.2
2017-07-09T03:49:55.335Z,72.2
2017-07-09T03:50:54.915Z,72.1
2017-07-09T03:51:25.047Z,72.1
2017-07-09T03:51:55.554Z,72.3
2017-07-09T03:52:25.810Z,72.3
2017-07-09T03:52:56.445Z,72.3
2017-07-09T03:53:26.822Z,72.3
2017-07-09T03:55:51.207Z,72.4
2017-07-09T03:56:50.279Z,72.4
2017-07-09T03:57:50.920Z,72.5
2017-07-09T03:58:49.369Z,72.8
2017-07-09T03:59:48.695Z,72.9
2017-07-09T04:00:48.135Z,72.9
2017-07-09T04:01:47.352Z,73
2017-07-09T04:02:46.955Z,73.1
2017-07-09T04:03:45.794Z,73.1
2017-07-09T04:04:45.376Z,73.1
2017-07-09T04:05:44.830Z,73.1
2017-07-09T04:06:43.902Z,73.2
2017-07-09T04:07:43.231Z,73.1
2017-07-09T04:08:42.808Z,73
2017-07-09T04:09:42.390Z,73.1
2017-07-09T04:10:41.590Z,73.2
2017-07-09T04:11:41.157Z,73.2
2017-07-09T04:12:39.974Z,73.2
2017-07-09T04:13:39.163Z,73.3
2017-07-09T04:14:38.865Z,73.3
2017-07-09T04:15:38.444Z,73.3
2017-07-09T04:16:37.512Z,73.3
2017-07-09T04:17:36.966Z,73.3
2017-07-09T04:18:35.977Z,73.5
2017-07-09T04:19:35.680Z,73.6
2017-07-09T04:20:34.628Z,73.9
2017-07-09T04:21:33.698Z,74.2
2017-07-09T04:22:33.655Z,74.3
2017-07-09T04:24:32.232Z,74.5
2017-07-09T04:25:31.665Z,74.5
2017-07-09T04:26:30.609Z,74.4
2017-07-09T04:27:30.052Z,74.4
2017-07-09T04:28:29.499Z,74.5
2017-07-09T04:29:28.820Z,74.7
2017-07-09T04:30:28.138Z,74.7
2017-07-09T04:31:27.451Z,74.8
2017-07-09T04:32:26.664Z,74.8
2017-07-09T04:33:25.733Z,75
2017-07-09T04:34:25.430Z,75.1
2017-07-09T04:35:25.119Z,75.2
2017-07-09T04:36:24.198Z,75.1
2017-07-09T04:37:23.777Z,75.1
2017-07-09T04:38:22.711Z,75.1
2017-07-09T04:39:22.160Z,75.2
2017-07-09T04:40:21.865Z,75.1
2017-07-09T04:41:20.552Z,75.1
2017-07-09T04:42:20.005Z,75.1
2017-07-09T04:43:19.331Z,75
2017-07-09T04:43:49.712Z,75
2017-07-09T04:44:20.606Z,75
2017-07-09T04:44:50.737Z,75
2017-07-09T04:46:17.732Z,75
2017-07-09T04:47:16.804Z,75
2017-07-09T04:48:16.244Z,75.1
2017-07-09T04:49:15.822Z,75.2
2017-07-09T04:50:15.142Z,75.2
2017-07-09T04:51:13.954Z,75.2
2017-07-09T04:52:13.533Z,75.4
2017-07-09T04:53:12.862Z,75.4
2017-07-09T04:54:12.062Z,75.5
2017-07-09T04:55:11.637Z,75.4
2017-07-09T04:56:10.953Z,75.7
2017-07-09T04:57:10.401Z,75.9
2017-07-09T04:58:09.209Z,75.9
2017-07-09T04:59:08.901Z,75.9
2017-07-09T05:00:08.231Z,75.9
2017-07-09T05:01:07.432Z,76.1
2017-07-09T05:02:06.626Z,76.4
2017-07-09T05:03:06.188Z,76.4
2017-07-09T05:04:05.511Z,76.4
2017-07-09T05:05:04.581Z,76.4
2017-07-09T05:06:04.267Z,76.4
2017-07-09T05:07:03.646Z,76.4
2017-07-09T05:08:02.710Z,76.4
2017-07-09T05:09:02.279Z,76.5
2017-07-09T05:10:01.354Z,76.5
2017-07-09T05:11:00.669Z,76.5
2017-07-09T05:12:00.498Z,76.6
2017-07-09T05:12:59.816Z,76.5
2017-07-09T05:13:59.007Z,76.5
2017-07-09T05:14:58.519Z,76.5
2017-07-09T05:15:57.964Z,76.6
2017-07-09T05:16:56.916Z,76.5
2017-07-09T05:17:56.115Z,76.4
2017-07-09T05:18:55.562Z,76.4
2017-07-09T05:19:54.758Z,76.5
2017-07-09T05:20:54.079Z,76.6
2017-07-09T05:21:53.914Z,76.6
2017-07-09T05:22:52.778Z,76.6
2017-07-09T05:23:51.964Z,76.5
2017-07-09T05:25:51.052Z,76.4
2017-07-09T05:26:50.358Z,76.4
2017-07-09T05:27:49.685Z,76.4
2017-07-09T05:28:49.017Z,76.3
2017-07-09T05:29:48.466Z,76.4
2017-07-09T05:31:47.416Z,76.1
2017-07-09T05:32:46.359Z,76.2
2017-07-09T05:33:45.549Z,76.2
2017-07-09T05:35:44.511Z,76
2017-07-09T05:36:43.966Z,75.9
2017-07-09T05:37:43.038Z,75.6
2017-07-09T05:38:42.359Z,75.6
2017-07-09T05:39:41.684Z,75.4
2017-07-09T05:40:12.255Z,75.4
2017-07-09T05:40:42.543Z,75.3
2017-07-09T05:41:12.796Z,75.3
2017-07-09T05:42:39.680Z,75.1
2017-07-09T05:43:39.270Z,75.1
2017-07-09T05:44:38.211Z,74.7
2017-07-09T05:45:37.839Z,74.5
2017-07-09T05:46:37.161Z,74.2
2017-07-09T05:47:36.612Z,74.3
2017-07-09T05:48:36.522Z,74.3
2017-07-09T05:49:35.477Z,74.1
2017-07-09T05:50:34.794Z,74
2017-07-09T05:51:33.981Z,73.7
2017-07-09T05:52:04.104Z,73.7
2017-07-09T05:52:34.481Z,73.5
2017-07-09T05:53:04.737Z,73.5
2017-07-09T05:54:31.875Z,73.5
2017-07-09T05:55:31.315Z,73.7
2017-07-09T05:56:30.756Z,73.9
2017-07-09T05:57:30.135Z,73.9
2017-07-09T05:58:29.585Z,73.8
2017-07-09T05:59:28.658Z,73.7
2017-07-09T06:00:28.113Z,73.7
2017-07-09T06:01:27.676Z,73.7
2017-07-09T06:02:26.745Z,74
2017-07-09T06:03:25.930Z,73.9
2017-07-09T06:04:25.394Z,73.8
2017-07-09T06:05:24.721Z,74.1
2017-07-09T06:06:24.289Z,73.7
2017-07-09T06:07:23.370Z,73.4
2017-07-09T06:08:23.513Z,72.9
2017-07-09T06:09:21.829Z,73
2017-07-09T06:10:22.348Z,72.9
2017-07-09T06:10:51.858Z,72.9
2017-07-09T06:11:22.124Z,72.8
2017-07-09T06:11:52.756Z,72.8
2017-07-09T06:12:23.263Z,72.9
2017-07-09T06:12:53.650Z,72.9
2017-07-09T06:14:18.633Z,71.7
2017-07-09T06:15:18.325Z,71.3
2017-07-09T06:16:17.400Z,70.9
2017-07-09T06:17:17.152Z,71
2017-07-09T06:18:16.110Z,71
2017-07-09T06:19:15.318Z,71
2017-07-09T06:20:14.899Z,71.1
2017-07-09T06:21:14.342Z,71
2017-07-09T06:22:13.661Z,71.1
2017-07-09T06:23:12.853Z,70.8
2017-07-09T06:24:12.032Z,70.8
2017-07-09T06:25:11.606Z,70.8
2017-07-09T06:27:10.432Z,70.6
2017-07-09T06:28:09.998Z,69.2
2017-07-09T06:29:08.812Z,68.6
2017-07-09T06:30:08.753Z,67.6
2017-07-09T06:31:07.825Z,67.4
2017-07-09T06:32:07.281Z,67.5
2017-07-09T06:33:06.594Z,66.7
2017-07-09T06:33:36.967Z,66.7
2017-07-09T06:34:07.595Z,65.9
2017-07-09T06:34:38.481Z,65.9
2017-07-09T06:36:04.356Z,65.3
2017-07-09T06:37:04.064Z,65.3
2017-07-09T06:38:03.139Z,64.5
2017-07-09T06:39:02.452Z,63.7
2017-07-09T06:41:01.035Z,64.3
2017-07-09T06:42:00.725Z,64.1
2017-07-09T06:43:00.167Z,65.1
2017-07-09T06:43:59.489Z,65.1
2017-07-09T06:44:58.807Z,65.5
2017-07-09T06:45:57.874Z,66
2017-07-09T06:46:57.701Z,65.9
2017-07-09T06:47:56.778Z,66.2
2017-07-09T06:48:56.099Z,66.4
2017-07-09T06:49:55.807Z,65.8
2017-07-09T06:50:54.874Z,65.7
2017-07-09T06:51:53.948Z,66
2017-07-09T06:52:53.769Z,65.8
2017-07-09T06:55:51.880Z,64.6
2017-07-09T06:56:51.320Z,64.9
2017-07-09T06:57:50.393Z,64.5
2017-07-09T06:58:49.716Z,64.1
2017-07-09T06:59:49.179Z,63.8
2017-07-09T07:00:48.759Z,64
2017-07-09T07:01:47.839Z,63.6
2017-07-09T07:02:47.556Z,62.6
2017-07-09T07:03:46.499Z,62.5
2017-07-09T07:04:45.943Z,62.3
2017-07-09T07:05:45.403Z,61.9
2017-07-09T07:06:44.857Z,62.3
2017-07-09T07:08:43.571Z,63.1
2017-07-09T07:09:42.690Z,63.5
2017-07-09T07:10:42.957Z,63.7
2017-07-09T07:11:41.528Z,63.7
2017-07-09T07:12:41.106Z,63.3
2017-07-09T07:13:40.553Z,62.9
2017-07-09T07:14:39.732Z,62.3
2017-07-09T07:15:39.075Z,61.5
2017-07-09T07:16:38.783Z,61.3
2017-07-09T07:18:37.114Z,59.5
2017-07-09T07:19:36.694Z,59.3
2017-07-09T07:20:36.211Z,60.7
2017-07-09T07:21:35.169Z,61
2017-07-09T07:22:34.236Z,61.3
2017-07-09T07:23:34.059Z,61.5
2017-07-09T07:24:33.947Z,61.5
2017-07-09T07:25:32.515Z,60.7
2017-07-09T07:26:32.338Z,60.6
2017-07-09T07:27:31.790Z,60.8
2017-07-09T07:28:30.981Z,60.7
2017-07-09T07:29:30.175Z,60.7
2017-07-09T07:30:29.501Z,61.2
2017-07-09T07:31:28.818Z,61.5
2017-07-09T07:32:28.131Z,61.5
2017-07-09T07:33:27.564Z,62.3
2017-07-09T07:34:27.008Z,62.7
2017-07-09T07:35:26.320Z,62.6
2017-07-09T07:36:25.755Z,62.4
2017-07-09T07:37:25.446Z,62.1
2017-07-09T07:38:24.515Z,62.4
2017-07-09T07:39:23.976Z,62.1
2017-07-09T07:40:23.296Z,61.6
2017-07-09T07:41:22.738Z,61.9
2017-07-09T07:42:22.188Z,61.3
2017-07-09T07:43:21.632Z,61.7
2017-07-09T07:45:20.345Z,61.4
2017-07-09T07:47:19.070Z,59.7
2017-07-09T07:48:18.271Z,60.4
2017-07-09T07:49:17.722Z,60.5
2017-07-09T07:50:16.915Z,61
2017-07-09T07:51:16.347Z,60.9
2017-07-09T07:52:15.787Z,61.4
2017-07-09T07:53:15.232Z,61.9
2017-07-09T07:54:14.809Z,61.9
2017-07-09T07:55:14.373Z,62
2017-07-09T07:56:13.320Z,62.1
2017-07-09T07:57:12.940Z,62.4
2017-07-09T07:58:12.143Z,61.9
2017-07-09T07:59:11.594Z,62
2017-07-09T07:59:42.239Z,62
2017-07-09T08:00:12.504Z,61.6
2017-07-09T08:00:42.870Z,61.6
2017-07-09T08:01:13.625Z,61.6
2017-07-09T08:01:43.760Z,61.6
2017-07-09T08:02:14.021Z,60.7
2017-07-09T08:03:09.067Z,60.6
2017-07-09T08:04:08.822Z,60.6
2017-07-09T08:05:07.528Z,60.6
2017-07-09T08:06:06.979Z,60.5
2017-07-09T08:07:07.054Z,60.3
2017-07-09T08:08:06.249Z,61.2
2017-07-09T08:09:05.703Z,61.1
2017-07-09T08:10:04.511Z,60.9
2017-07-09T08:11:04.341Z,60.5
2017-07-09T08:12:03.533Z,60.3
2017-07-09T08:13:02.590Z,60.7
2017-07-09T08:14:02.289Z,61
2017-07-09T08:15:01.786Z,61
2017-07-09T08:16:01.424Z,61.4
2017-07-09T08:17:00.624Z,61.5
2017-07-09T08:17:59.815Z,61
2017-07-09T08:18:59.010Z,61.6
2017-07-09T08:19:58.472Z,61.6
2017-07-09T08:20:57.919Z,62.2
2017-07-09T08:21:57.856Z,62.2
2017-07-09T08:22:57.043Z,62.2
2017-07-09T08:23:56.233Z,62.2
2017-07-09T08:24:55.428Z,63
2017-07-09T08:25:55.393Z,63
2017-07-09T08:26:54.477Z,62.7
2017-07-09T08:27:53.805Z,61.8
2017-07-09T08:28:53.005Z,62.3
2017-07-09T08:29:52.701Z,62.5
2017-07-09T08:30:52.524Z,62.6
2017-07-09T08:31:51.597Z,62.4
2017-07-09T08:32:51.163Z,61.7
2017-07-09T08:33:50.469Z,61.7
2017-07-09T08:34:49.921Z,61.5
2017-07-09T08:35:49.519Z,61.5
2017-07-09T08:36:48.464Z,60.8
2017-07-09T08:37:47.925Z,61.3
2017-07-09T08:38:47.255Z,61.5
2017-07-09T08:39:46.819Z,61.5
2017-07-09T08:40:46.269Z,61.5
2017-07-09T08:41:45.852Z,60.7
2017-07-09T08:42:44.927Z,60.2
2017-07-09T08:43:44.260Z,60.8
2017-07-09T08:44:43.716Z,60.4
2017-07-09T08:45:43.284Z,60.4
2017-07-09T08:46:42.867Z,60.3
2017-07-09T08:47:41.936Z,60
2017-07-09T08:48:41.383Z,59.4
2017-07-09T08:49:40.833Z,58.7
2017-07-09T08:50:40.673Z,59.3
2017-07-09T08:51:39.621Z,59.3
2017-07-09T08:52:39.070Z,59
2017-07-09T08:53:38.269Z,59.5
2017-07-09T08:54:38.105Z,59.5
2017-07-09T08:55:08.111Z,59.5
2017-07-09T08:55:38.997Z,59.9
2017-07-09T08:56:36.674Z,58.2
2017-07-09T08:57:35.867Z,58.2
2017-07-09T08:58:35.567Z,56.6
2017-07-09T08:59:34.763Z,56.7
2017-07-09T09:00:34.458Z,56.4
2017-07-09T09:01:33.654Z,55.1
2017-07-09T09:02:33.230Z,54.7
2017-07-09T09:03:32.672Z,55
2017-07-09T09:05:31.392Z,54.9
2017-07-09T09:06:30.850Z,54.8
2017-07-09T09:07:30.306Z,55
2017-07-09T09:08:29.767Z,55.5
2017-07-09T09:09:29.224Z,55.5
2017-07-09T09:10:28.672Z,55.5
2017-07-09T09:10:58.864Z,55.5
2017-07-09T09:11:29.497Z,54.2
2017-07-09T09:11:59.631Z,54.2
2017-07-09T09:12:30.387Z,53.1
2017-07-09T09:13:26.617Z,53.2
2017-07-09T09:14:26.306Z,53.7
2017-07-09T09:15:25.492Z,53.7
2017-07-09T09:16:24.684Z,54
2017-07-09T09:17:24.504Z,54.1
2017-07-09T09:18:23.826Z,53.9
2017-07-09T09:19:23.270Z,54.3
2017-07-09T09:20:22.725Z,53.7
2017-07-09T09:21:22.306Z,54.3
2017-07-09T09:22:21.241Z,54.8
2017-07-09T09:23:20.809Z,55.1
2017-07-09T09:24:20.006Z,55.5
2017-07-09T09:25:19.452Z,55.1
2017-07-09T09:26:19.280Z,55.4
2017-07-09T09:27:18.735Z,55.6
2017-07-09T09:28:18.051Z,56.4
2017-07-09T09:29:17.504Z,56.3
2017-07-09T09:30:16.703Z,56
2017-07-09T09:31:16.138Z,55.8
2017-07-09T09:32:15.367Z,55.7
2017-07-09T09:33:15.188Z,55.7
2017-07-09T09:34:14.378Z,54.4
2017-07-09T09:35:13.815Z,55.3
2017-07-09T09:36:13.385Z,55.3
2017-07-09T09:37:12.696Z,55.4
2017-07-09T09:38:12.269Z,54.8
2017-07-09T09:39:11.450Z,54.6
2017-07-09T09:40:10.964Z,55.6
2017-07-09T09:41:10.029Z,56.6
2017-07-09T09:42:09.858Z,56
2017-07-09T09:43:09.558Z,55.5
2017-07-09T09:44:08.635Z,56
2017-07-09T09:45:07.824Z,56
2017-07-09T09:46:07.789Z,56
2017-07-09T09:47:06.858Z,55.8
2017-07-09T09:48:07.123Z,55.1
2017-07-09T09:49:05.829Z,55.9
2017-07-09T09:50:05.024Z,56
2017-07-09T09:51:04.598Z,56
2017-07-09T09:52:03.783Z,56.1
2017-07-09T09:53:03.609Z,55
2017-07-09T09:54:02.813Z,54.6
2017-07-09T09:55:01.875Z,54.1
2017-07-09T09:56:01.453Z,53.2
2017-07-09T09:57:01.019Z,53.1
2017-07-09T09:58:00.591Z,53.5
2017-07-09T09:58:59.784Z,53.6
2017-07-09T09:59:59.361Z,54.3
2017-07-09T10:00:58.943Z,54
2017-07-09T10:01:58.389Z,54.7
2017-07-09T10:02:57.844Z,54.3
2017-07-09T10:03:57.416Z,54.3
2017-07-09T10:04:56.620Z,53.8
2017-07-09T10:05:26.874Z,53.8
2017-07-09T10:05:56.881Z,54.2
2017-07-09T10:06:55.323Z,54
2017-07-09T10:08:54.474Z,54
2017-07-09T10:09:54.363Z,54.3
2017-07-09T10:10:53.234Z,55
2017-07-09T10:11:52.950Z,55
2017-07-09T10:12:51.762Z,54.4
2017-07-09T10:13:51.339Z,55.5
2017-07-09T10:14:50.658Z,55.2
2017-07-09T10:15:50.233Z,55.3
2017-07-09T10:16:49.542Z,55.4
2017-07-09T10:17:49.120Z,56
2017-07-09T10:18:48.580Z,55.5
2017-07-09T10:19:48.032Z,55.7
2017-07-09T10:20:47.350Z,55.2
2017-07-09T10:21:46.795Z,55.8
2017-07-09T10:22:46.547Z,55.8
2017-07-09T10:23:45.618Z,55.6
2017-07-09T10:24:45.446Z,56.5
2017-07-09T10:25:44.382Z,56.5
2017-07-09T10:26:44.219Z,56.5
2017-07-09T10:27:43.675Z,56.2
2017-07-09T10:28:42.993Z,56.2
2017-07-09T10:29:42.430Z,56.6
2017-07-09T10:30:42.007Z,56.5
2017-07-09T10:31:41.579Z,56.4
2017-07-09T10:32:40.895Z,56.7
2017-07-09T10:33:40.085Z,57.1
2017-07-09T10:34:39.794Z,56.7
2017-07-09T10:35:39.122Z,56.4
2017-07-09T10:36:38.699Z,56.7
2017-07-09T10:37:37.780Z,56.4
2017-07-09T10:38:37.609Z,56.2
2017-07-09T10:39:37.047Z,56
2017-07-09T10:40:36.499Z,56.2
2017-07-09T10:41:35.945Z,56.4
2017-07-09T10:42:35.391Z,55.9
2017-07-09T10:44:33.973Z,56.1
2017-07-09T10:45:33.796Z,55.9
2017-07-09T10:46:33.122Z,56.2
2017-07-09T10:47:32.570Z,56
2017-07-09T10:48:32.013Z,56.3
2017-07-09T10:49:31.323Z,56.6
2017-07-09T10:50:31.031Z,57
2017-07-09T10:51:30.347Z,56.6
2017-07-09T10:52:29.676Z,56.7
2017-07-09T10:53:29.250Z,56.4
2017-07-09T10:54:28.932Z,56.5
2017-07-09T10:55:28.009Z,56.5
2017-07-09T10:56:27.455Z,55.9
2017-07-09T10:57:27.019Z,55.7
2017-07-09T10:58:26.587Z,55.8
2017-07-09T10:59:26.271Z,56
2017-07-09T11:00:25.599Z,55.9
2017-07-09T11:00:56.110Z,55.9
2017-07-09T11:02:24.247Z,55.7
2017-07-09T11:03:24.267Z,55.3
2017-07-09T11:04:23.721Z,55.3
2017-07-09T11:05:23.165Z,55.2
2017-07-09T11:06:22.235Z,54.9
2017-07-09T11:07:21.662Z,55.4
2017-07-09T11:08:21.477Z,55.5
2017-07-09T11:09:20.941Z,55.4
2017-07-09T11:10:20.133Z,54.7
2017-07-09T11:11:19.445Z,54.7
2017-07-09T11:12:19.401Z,54.5
2017-07-09T11:13:18.595Z,54.8
2017-07-09T11:13:49.227Z,54.8
2017-07-09T11:14:19.352Z,54.7
2017-07-09T11:15:17.548Z,55.1
2017-07-09T11:16:16.989Z,55.9
2017-07-09T11:17:16.453Z,56.4
2017-07-09T11:18:15.891Z,55.9
2017-07-09T11:19:15.466Z,55.9
2017-07-09T11:20:15.297Z,55.9
2017-07-09T11:21:14.493Z,55.4
2017-07-09T11:22:13.823Z,55.5
2017-07-09T11:23:13.521Z,55.3
2017-07-09T11:24:12.472Z,54.7
2017-07-09T11:25:12.675Z,54.7
2017-07-09T11:26:12.130Z,53.7
2017-07-09T11:27:11.452Z,54.1
2017-07-09T11:28:10.768Z,54.1
2017-07-09T11:29:10.584Z,54.1
2017-07-09T11:30:09.902Z,54.2
2017-07-09T11:31:09.337Z,54.6
2017-07-09T11:32:08.924Z,54.2
2017-07-09T11:32:39.196Z,54.2
2017-07-09T11:33:10.096Z,53.6
2017-07-09T11:33:40.482Z,53.6
2017-07-09T11:34:10.875Z,53.9
2017-07-09T11:34:41.125Z,53.9
2017-07-09T11:36:06.745Z,54.3
2017-07-09T11:37:06.327Z,54.2
2017-07-09T11:38:05.773Z,54.2
2017-07-09T11:39:05.616Z,54.6
2017-07-09T11:40:04.801Z,54.5
2017-07-09T11:41:04.001Z,54.8
2017-07-09T11:42:03.571Z,54.9
2017-07-09T11:43:03.186Z,54.7
2017-07-09T11:44:02.744Z,54.8
2017-07-09T11:45:02.572Z,54.6
2017-07-09T11:46:01.758Z,54.8
2017-07-09T11:47:01.598Z,54.7
2017-07-09T11:48:00.797Z,54.5
2017-07-09T11:50:00.140Z,54.3
2017-07-09T11:50:59.323Z,54.3
2017-07-09T11:51:59.275Z,54.6
2017-07-09T11:52:58.211Z,53.7
2017-07-09T11:53:58.036Z,53.8
2017-07-09T11:54:57.619Z,53.5
2017-07-09T11:55:57.079Z,53.5
2017-07-09T11:56:56.411Z,54.1
2017-07-09T11:57:55.735Z,54
2017-07-09T11:58:55.682Z,54.6
2017-07-09T11:59:55.142Z,55.2
2017-07-09T12:00:54.583Z,53.9
2017-07-09T12:01:54.167Z,54.5
2017-07-09T12:02:53.617Z,54.6
2017-07-09T12:03:53.445Z,53.9
2017-07-09T12:04:52.652Z,54.1
2017-07-09T12:05:51.977Z,54.1
2017-07-09T12:06:51.804Z,54.2
2017-07-09T12:07:51.390Z,54.1
2017-07-09T12:08:50.462Z,54.1
2017-07-09T12:09:50.288Z,53.1
2017-07-09T12:10:49.751Z,53.3
2017-07-09T12:11:49.333Z,53
2017-07-09T12:12:49.027Z,52.5
2017-07-09T12:13:48.354Z,52.5
2017-07-09T12:14:47.815Z,52.5
2017-07-09T12:15:47.652Z,53
2017-07-09T12:16:47.030Z,52.9
2017-07-09T12:18:45.994Z,52.2
2017-07-09T12:19:45.316Z,52.2
2017-07-09T12:20:45.528Z,51.9
2017-07-09T12:21:44.731Z,51.9
2017-07-09T12:22:44.055Z,52
2017-07-09T12:23:43.623Z,51.8
2017-07-09T12:24:43.319Z,51.5
2017-07-09T12:25:42.892Z,51.3
2017-07-09T12:26:42.211Z,51.5
2017-07-09T12:27:12.707Z,51.5
2017-07-09T12:27:43.089Z,51.5
2017-07-09T12:28:41.411Z,52
2017-07-09T12:29:40.987Z,51.6
2017-07-09T12:30:40.572Z,51.8
2017-07-09T12:31:40.151Z,50.7
2017-07-09T12:32:39.610Z,50.7
2017-07-09T12:33:39.302Z,51.2
2017-07-09T12:34:38.493Z,51.4
2017-07-09T12:35:38.341Z,51.5
2017-07-09T12:36:37.543Z,51.3
2017-07-09T12:37:37.355Z,50.9
2017-07-09T12:38:36.807Z,51.9
2017-07-09T12:39:36.005Z,50.9
2017-07-09T12:40:35.708Z,51.5
2017-07-09T12:41:35.162Z,52
2017-07-09T12:42:34.987Z,52.2
2017-07-09T12:43:05.879Z,52.2
2017-07-09T12:44:33.771Z,52.2
2017-07-09T12:45:33.486Z,52
2017-07-09T12:47:32.746Z,51.8
2017-07-09T12:48:32.315Z,51.5
2017-07-09T12:49:32.451Z,51.8
2017-07-09T12:50:31.269Z,51.8
2017-07-09T12:51:30.593Z,51.8
2017-07-09T12:52:30.421Z,51.5
2017-07-09T12:53:29.866Z,51.6
2017-07-09T12:55:29.065Z,51.6
2017-07-09T12:56:28.534Z,51.9
2017-07-09T12:57:27.974Z,52.3
2017-07-09T12:59:27.567Z,52.3
2017-07-09T13:00:26.887Z,51.3
2017-07-09T13:01:26.201Z,51.7
2017-07-09T13:02:25.893Z,52.2
2017-07-09T13:03:25.958Z,51.6
2017-07-09T13:04:25.283Z,51.8
2017-07-09T13:05:24.787Z,51.4
2017-07-09T13:06:24.612Z,51.5
2017-07-09T13:07:23.948Z,51.6
2017-07-09T13:08:23.329Z,51.6
2017-07-09T13:09:22.783Z,51.6
2017-07-09T13:10:22.744Z,51.1
2017-07-09T13:11:22.066Z,51.1
2017-07-09T13:12:21.629Z,51
2017-07-09T13:13:21.387Z,51
2017-07-09T13:14:20.721Z,51.2
2017-07-09T13:15:20.174Z,51.4
2017-07-09T13:16:20.131Z,51.4
2017-07-09T13:17:20.009Z,51.3
2017-07-09T13:18:19.203Z,50.9